Strona główna
METAR-TAF:

METAR-TAF

Lotnisko :

Port lotniczy Mae Sot

Mae Sot, Tajlandia

Szerokość geograficzna: 16-40N, Długość geograficzna: 098-33E, wysokość: 196 m

Aktualna obserwacja pogody

Raport powstał 24 minut temu, godzina 01:00 UTC
Cisza
Temperatura 19°C
Wilgotność 68%
Ciśnienie 1014 hPa
Widzialność: 8000 m

METAR: VTPM 230100Z 00000KT 8000 NSC 19/13 Q1014 NOSIG

czas: 08:24 (01:24 UTC)

Prognoza

Raport powstał 2 godziny i 24 minut temu, godzina 23:00 UTC
Prognoza ważna od 23 godzina 00 UTC do 23 godzina 24 UTC
Wiatr 5 kt od zachód
Widzialność: 7000 m
Stopniowe zmiany
od 23 godzina 02 UTC do 23 godzina 04 UTC
Widzialność 10 km lub więcej
Mało chmury na wysokości 2500 ft

TAF: VTPM 222300Z 2300/2324 27005KT 7000 NSC BECMG 2302/2304 9999 FEW025

Obserwacja i prognoza pogody dla ponad 4000 lotnisk (raport METAR i TAF).

Dostępne stacje oznaczono żółtymi i czerwonymi punktami na mapie.

Najedź kursorem aby zobaczyć nazwę stacji.

Kliknij aby zobaczyć obserwacje i prognozy pogody.

Aby zmienić mapę: kliknij na zielony przycisk z czarnym krzyżykiem, aby powiększyć; na zielony przycisk z myślnikiem, aby pomniejszyć; na zielone strzałki, aby przejść do map sąsiednich.


METAR-TAF: